sensor_id;sensor_type;location;lat;lon;timestamp;P1;durP1;ratioP1;P2;durP2;ratioP2
7645;SDS011;3864;48.180;14.178;2023-05-07T00:00:33;10.23;;;7.85;;
7645;SDS011;3864;48.180;14.178;2023-05-07T00:03:00;10.75;;;7.30;;
7645;SDS011;3864;48.180;14.178;2023-05-07T00:05:27;9.27;;;7.20;;
7645;SDS011;3864;48.180;14.178;2023-05-07T00:07:56;11.38;;;7.95;;
7645;SDS011;3864;48.180;14.178;2023-05-07T00:10:23;9.20;;;7.53;;
7645;SDS011;3864;48.180;14.178;2023-05-07T00:12:50;9.52;;;7.00;;
7645;SDS011;3864;48.180;14.178;2023-05-07T00:15:17;11.65;;;7.45;;
7645;SDS011;3864;48.180;14.178;2023-05-07T00:17:44;10.25;;;7.70;;
7645;SDS011;3864;48.180;14.178;2023-05-07T00:20:11;10.27;;;7.47;;
7645;SDS011;3864;48.180;14.178;2023-05-07T00:22:38;11.32;;;7.43;;
7645;SDS011;3864;48.180;14.178;2023-05-07T00:25:08;12.00;;;7.47;;
7645;SDS011;3864;48.180;14.178;2023-05-07T00:27:35;10.57;;;7.85;;
7645;SDS011;3864;48.180;14.178;2023-05-07T00:30:02;12.25;;;8.13;;
7645;SDS011;3864;48.180;14.178;2023-05-07T00:32:29;12.65;;;9.27;;
7645;SDS011;3864;48.180;14.178;2023-05-07T00:34:56;12.77;;;7.95;;
7645;SDS011;3864;48.180;14.178;2023-05-07T00:37:23;10.07;;;7.70;;
7645;SDS011;3864;48.180;14.178;2023-05-07T00:39:49;9.82;;;7.82;;
7645;SDS011;3864;48.180;14.178;2023-05-07T00:42:18;11.68;;;7.43;;
7645;SDS011;3864;48.180;14.178;2023-05-07T00:44:46;10.23;;;7.63;;
7645;SDS011;3864;48.180;14.178;2023-05-07T00:47:13;11.38;;;8.40;;
7645;SDS011;3864;48.180;14.178;2023-05-07T00:49:41;10.23;;;7.40;;
7645;SDS011;3864;48.180;14.178;2023-05-07T00:52:09;13.18;;;8.02;;
7645;SDS011;3864;48.180;14.178;2023-05-07T00:54:36;10.50;;;7.68;;
7645;SDS011;3864;48.180;14.178;2023-05-07T00:57:03;9.80;;;7.60;;
7645;SDS011;3864;48.180;14.178;2023-05-07T00:59:32;10.73;;;7.80;;
7645;SDS011;3864;48.180;14.178;2023-05-07T01:02:00;12.57;;;8.23;;
7645;SDS011;3864;48.180;14.178;2023-05-07T01:04:26;12.82;;;8.10;;
7645;SDS011;3864;48.180;14.178;2023-05-07T01:06:53;11.68;;;8.07;;
7645;SDS011;3864;48.180;14.178;2023-05-07T01:09:21;13.52;;;8.77;;
7645;SDS011;3864;48.180;14.178;2023-05-07T01:11:48;12.40;;;9.07;;
7645;SDS011;3864;48.180;14.178;2023-05-07T01:14:16;10.20;;;8.02;;
7645;SDS011;3864;48.180;14.178;2023-05-07T01:16:45;11.70;;;7.50;;
7645;SDS011;3864;48.180;14.178;2023-05-07T01:19:12;10.02;;;7.65;;
7645;SDS011;3864;48.180;14.178;2023-05-07T01:21:41;10.23;;;7.68;;
7645;SDS011;3864;48.180;14.178;2023-05-07T01:24:12;9.48;;;7.60;;
7645;SDS011;3864;48.180;14.178;2023-05-07T01:26:43;9.43;;;7.35;;
7645;SDS011;3864;48.180;14.178;2023-05-07T01:40:19;10.88;;;8.07;;
7645;SDS011;3864;48.180;14.178;2023-05-07T01:43:13;14.90;;;9.13;;
7645;SDS011;3864;48.180;14.178;2023-05-07T01:45:41;14.98;;;8.95;;
7645;SDS011;3864;48.180;14.178;2023-05-07T01:48:23;14.60;;;8.95;;
7645;SDS011;3864;48.180;14.178;2023-05-07T01:51:30;11.93;;;8.18;;
7645;SDS011;3864;48.180;14.178;2023-05-07T01:54:33;14.52;;;8.55;;
7645;SDS011;3864;48.180;14.178;2023-05-07T01:57:04;10.88;;;8.68;;
7645;SDS011;3864;48.180;14.178;2023-05-07T01:59:46;11.98;;;9.05;;
7645;SDS011;3864;48.180;14.178;2023-05-07T02:02:27;15.63;;;9.38;;
7645;SDS011;3864;48.180;14.178;2023-05-07T02:07:56;9.32;;;6.97;;
7645;SDS011;3864;48.180;14.178;2023-05-07T02:19:29;13.77;;;9.75;;
7645;SDS011;3864;48.180;14.178;2023-05-07T02:22:16;12.35;;;8.00;;
7645;SDS011;3864;48.180;14.178;2023-05-07T02:25:07;13.10;;;8.60;;
7645;SDS011;3864;48.180;14.178;2023-05-07T02:27:38;13.98;;;8.98;;
7645;SDS011;3864;48.180;14.178;2023-05-07T02:30:09;12.93;;;9.07;;
7645;SDS011;3864;48.180;14.178;2023-05-07T02:32:40;14.18;;;8.93;;
7645;SDS011;3864;48.180;14.178;2023-05-07T02:35:10;12.63;;;8.82;;
7645;SDS011;3864;48.180;14.178;2023-05-07T02:37:38;12.63;;;8.65;;
7645;SDS011;3864;48.180;14.178;2023-05-07T02:40:08;12.85;;;8.48;;
7645;SDS011;3864;48.180;14.178;2023-05-07T02:42:38;17.90;;;9.10;;
7645;SDS011;3864;48.180;14.178;2023-05-07T02:45:06;10.45;;;7.93;;
7645;SDS011;3864;48.180;14.178;2023-05-07T02:47:42;13.05;;;8.73;;
7645;SDS011;3864;48.180;14.178;2023-05-07T02:50:14;13.68;;;8.30;;
7645;SDS011;3864;48.180;14.178;2023-05-07T02:52:44;12.70;;;8.45;;
7645;SDS011;3864;48.180;14.178;2023-05-07T02:55:13;13.43;;;8.30;;
7645;SDS011;3864;48.180;14.178;2023-05-07T02:57:42;12.82;;;8.35;;
7645;SDS011;3864;48.180;14.178;2023-05-07T03:00:13;12.93;;;8.98;;
7645;SDS011;3864;48.180;14.178;2023-05-07T03:02:43;15.27;;;10.60;;
7645;SDS011;3864;48.180;14.178;2023-05-07T03:05:11;13.35;;;9.27;;
7645;SDS011;3864;48.180;14.178;2023-05-07T03:07:40;11.82;;;8.95;;
7645;SDS011;3864;48.180;14.178;2023-05-07T03:10:10;14.23;;;9.60;;
7645;SDS011;3864;48.180;14.178;2023-05-07T03:12:38;11.60;;;9.02;;
7645;SDS011;3864;48.180;14.178;2023-05-07T03:15:07;13.98;;;9.27;;
7645;SDS011;3864;48.180;14.178;2023-05-07T03:17:35;14.63;;;9.90;;
7645;SDS011;3864;48.180;14.178;2023-05-07T03:20:09;18.00;;;10.48;;
7645;SDS011;3864;48.180;14.178;2023-05-07T03:22:38;15.82;;;10.23;;
7645;SDS011;3864;48.180;14.178;2023-05-07T03:25:07;19.50;;;9.90;;
7645;SDS011;3864;48.180;14.178;2023-05-07T03:27:38;11.32;;;7.95;;
7645;SDS011;3864;48.180;14.178;2023-05-07T03:30:09;12.90;;;8.65;;
7645;SDS011;3864;48.180;14.178;2023-05-07T03:32:38;13.65;;;8.85;;
7645;SDS011;3864;48.180;14.178;2023-05-07T03:35:09;15.38;;;9.98;;
7645;SDS011;3864;48.180;14.178;2023-05-07T03:37:39;14.23;;;9.00;;
7645;SDS011;3864;48.180;14.178;2023-05-07T03:40:08;14.95;;;9.48;;
7645;SDS011;3864;48.180;14.178;2023-05-07T03:42:37;13.52;;;9.27;;
7645;SDS011;3864;48.180;14.178;2023-05-07T03:45:07;14.48;;;9.00;;
7645;SDS011;3864;48.180;14.178;2023-05-07T03:47:36;13.68;;;8.45;;
7645;SDS011;3864;48.180;14.178;2023-05-07T03:50:06;14.13;;;8.73;;
7645;SDS011;3864;48.180;14.178;2023-05-07T03:52:38;13.68;;;9.13;;
7645;SDS011;3864;48.180;14.178;2023-05-07T03:55:09;14.85;;;8.35;;
7645;SDS011;3864;48.180;14.178;2023-05-07T03:57:39;12.73;;;9.00;;
7645;SDS011;3864;48.180;14.178;2023-05-07T04:00:08;11.57;;;8.68;;
7645;SDS011;3864;48.180;14.178;2023-05-07T04:02:44;13.65;;;8.18;;
7645;SDS011;3864;48.180;14.178;2023-05-07T04:05:30;11.55;;;8.68;;
7645;SDS011;3864;48.180;14.178;2023-05-07T04:08:23;12.60;;;8.50;;
7645;SDS011;3864;48.180;14.178;2023-05-07T04:10:59;13.18;;;8.43;;
7645;SDS011;3864;48.180;14.178;2023-05-07T04:13:29;18.77;;;12.27;;
7645;SDS011;3864;48.180;14.178;2023-05-07T04:16:13;16.48;;;11.18;;
7645;SDS011;3864;48.180;14.178;2023-05-07T04:18:49;16.80;;;10.60;;
7645;SDS011;3864;48.180;14.178;2023-05-07T04:27:16;13.55;;;9.23;;
7645;SDS011;3864;48.180;14.178;2023-05-07T04:30:08;11.30;;;7.70;;
7645;SDS011;3864;48.180;14.178;2023-05-07T04:32:46;10.82;;;7.40;;
7645;SDS011;3864;48.180;14.178;2023-05-07T04:35:22;11.75;;;6.93;;
7645;SDS011;3864;48.180;14.178;2023-05-07T04:38:02;9.45;;;6.70;;
7645;SDS011;3864;48.180;14.178;2023-05-07T04:40:45;8.20;;;6.55;;
7645;SDS011;3864;48.180;14.178;2023-05-07T04:43:27;8.38;;;6.43;;
7645;SDS011;3864;48.180;14.178;2023-05-07T04:46:14;8.43;;;6.40;;
7645;SDS011;3864;48.180;14.178;2023-05-07T04:48:49;10.90;;;7.28;;
7645;SDS011;3864;48.180;14.178;2023-05-07T04:51:31;9.23;;;6.82;;
7645;SDS011;3864;48.180;14.178;2023-05-07T04:57:06;11.88;;;7.47;;
7645;SDS011;3864;48.180;14.178;2023-05-07T05:02:44;8.63;;;6.80;;
7645;SDS011;3864;48.180;14.178;2023-05-07T05:05:14;9.20;;;7.25;;
7645;SDS011;3864;48.180;14.178;2023-05-07T05:07:51;9.23;;;7.18;;
7645;SDS011;3864;48.180;14.178;2023-05-07T05:10:39;8.40;;;6.75;;
7645;SDS011;3864;48.180;14.178;2023-05-07T05:13:23;8.43;;;6.45;;
7645;SDS011;3864;48.180;14.178;2023-05-07T05:15:52;8.57;;;6.38;;
7645;SDS011;3864;48.180;14.178;2023-05-07T05:18:23;7.45;;;6.00;;
7645;SDS011;3864;48.180;14.178;2023-05-07T05:21:04;8.82;;;6.07;;
7645;SDS011;3864;48.180;14.178;2023-05-07T05:23:44;6.57;;;5.88;;
7645;SDS011;3864;48.180;14.178;2023-05-07T05:26:32;8.63;;;6.30;;
7645;SDS011;3864;48.180;14.178;2023-05-07T05:29:00;9.00;;;6.05;;
7645;SDS011;3864;48.180;14.178;2023-05-07T05:31:46;9.93;;;6.68;;
7645;SDS011;3864;48.180;14.178;2023-05-07T05:34:19;8.50;;;6.45;;
7645;SDS011;3864;48.180;14.178;2023-05-07T05:36:51;7.18;;;5.70;;
7645;SDS011;3864;48.180;14.178;2023-05-07T05:39:18;7.10;;;5.63;;
7645;SDS011;3864;48.180;14.178;2023-05-07T05:41:46;9.02;;;6.63;;
7645;SDS011;3864;48.180;14.178;2023-05-07T05:44:13;7.75;;;5.78;;
7645;SDS011;3864;48.180;14.178;2023-05-07T05:46:54;8.13;;;6.10;;
7645;SDS011;3864;48.180;14.178;2023-05-07T05:49:28;8.27;;;5.95;;
7645;SDS011;3864;48.180;14.178;2023-05-07T05:52:09;6.20;;;5.25;;
7645;SDS011;3864;48.180;14.178;2023-05-07T05:54:49;6.70;;;5.10;;
7645;SDS011;3864;48.180;14.178;2023-05-07T05:57:18;6.75;;;4.88;;
7645;SDS011;3864;48.180;14.178;2023-05-07T05:59:46;6.63;;;4.80;;
7645;SDS011;3864;48.180;14.178;2023-05-07T06:02:15;6.97;;;4.95;;
7645;SDS011;3864;48.180;14.178;2023-05-07T06:04:44;6.40;;;4.63;;
7645;SDS011;3864;48.180;14.178;2023-05-07T06:07:11;5.63;;;4.28;;
7645;SDS011;3864;48.180;14.178;2023-05-07T06:09:50;6.63;;;4.78;;
7645;SDS011;3864;48.180;14.178;2023-05-07T06:12:40;5.78;;;4.53;;
7645;SDS011;3864;48.180;14.178;2023-05-07T06:15:21;5.50;;;4.47;;
7645;SDS011;3864;48.180;14.178;2023-05-07T06:18:01;5.93;;;4.30;;
7645;SDS011;3864;48.180;14.178;2023-05-07T06:20:46;7.30;;;4.70;;
7645;SDS011;3864;48.180;14.178;2023-05-07T06:23:14;5.55;;;4.25;;
7645;SDS011;3864;48.180;14.178;2023-05-07T06:25:45;6.03;;;4.22;;
7645;SDS011;3864;48.180;14.178;2023-05-07T06:28:13;6.10;;;4.30;;
7645;SDS011;3864;48.180;14.178;2023-05-07T06:30:43;7.68;;;4.18;;
7645;SDS011;3864;48.180;14.178;2023-05-07T06:33:23;6.88;;;5.13;;
7645;SDS011;3864;48.180;14.178;2023-05-07T06:36:08;6.13;;;4.43;;
7645;SDS011;3864;48.180;14.178;2023-05-07T06:38:38;6.20;;;4.10;;
7645;SDS011;3864;48.180;14.178;2023-05-07T06:41:21;6.97;;;5.13;;
7645;SDS011;3864;48.180;14.178;2023-05-07T06:43:53;6.25;;;4.72;;
7645;SDS011;3864;48.180;14.178;2023-05-07T06:46:33;9.57;;;4.43;;
7645;SDS011;3864;48.180;14.178;2023-05-07T06:49:14;7.65;;;5.00;;
7645;SDS011;3864;48.180;14.178;2023-05-07T07:03:24;6.35;;;5.18;;
7645;SDS011;3864;48.180;14.178;2023-05-07T07:06:05;7.93;;;5.60;;
7645;SDS011;3864;48.180;14.178;2023-05-07T07:08:46;7.47;;;6.00;;
7645;SDS011;3864;48.180;14.178;2023-05-07T07:11:26;6.38;;;5.40;;
7645;SDS011;3864;48.180;14.178;2023-05-07T07:13:56;9.10;;;5.82;;
7645;SDS011;3864;48.180;14.178;2023-05-07T07:16:25;7.28;;;5.95;;
7645;SDS011;3864;48.180;14.178;2023-05-07T07:19:00;7.80;;;5.93;;
7645;SDS011;3864;48.180;14.178;2023-05-07T07:21:27;8.23;;;5.80;;
7645;SDS011;3864;48.180;14.178;2023-05-07T07:24:08;8.05;;;6.20;;
7645;SDS011;3864;48.180;14.178;2023-05-07T07:26:35;7.25;;;6.13;;
7645;SDS011;3864;48.180;14.178;2023-05-07T07:29:02;9.80;;;6.72;;
7645;SDS011;3864;48.180;14.178;2023-05-07T07:31:43;8.70;;;7.00;;
7645;SDS011;3864;48.180;14.178;2023-05-07T07:40:18;7.75;;;6.10;;
7645;SDS011;3864;48.180;14.178;2023-05-07T07:42:59;8.38;;;6.68;;
7645;SDS011;3864;48.180;14.178;2023-05-07T07:45:31;9.35;;;6.68;;
7645;SDS011;3864;48.180;14.178;2023-05-07T07:47:58;9.30;;;6.85;;
7645;SDS011;3864;48.180;14.178;2023-05-07T07:50:26;9.18;;;6.80;;
7645;SDS011;3864;48.180;14.178;2023-05-07T07:52:56;9.93;;;6.60;;
7645;SDS011;3864;48.180;14.178;2023-05-07T07:58:38;9.18;;;6.88;;
7645;SDS011;3864;48.180;14.178;2023-05-07T08:01:06;10.68;;;7.80;;
7645;SDS011;3864;48.180;14.178;2023-05-07T08:03:33;8.15;;;6.38;;
7645;SDS011;3864;48.180;14.178;2023-05-07T08:06:03;9.02;;;6.65;;
7645;SDS011;3864;48.180;14.178;2023-05-07T08:08:30;8.10;;;6.43;;
7645;SDS011;3864;48.180;14.178;2023-05-07T08:10:59;7.72;;;6.05;;
7645;SDS011;3864;48.180;14.178;2023-05-07T08:19:14;8.32;;;5.80;;
7645;SDS011;3864;48.180;14.178;2023-05-07T08:21:43;8.93;;;6.85;;
7645;SDS011;3864;48.180;14.178;2023-05-07T08:24:12;8.63;;;7.38;;
7645;SDS011;3864;48.180;14.178;2023-05-07T08:26:41;10.32;;;6.32;;
7645;SDS011;3864;48.180;14.178;2023-05-07T08:29:10;7.70;;;5.97;;
7645;SDS011;3864;48.180;14.178;2023-05-07T08:31:50;8.13;;;6.50;;
7645;SDS011;3864;48.180;14.178;2023-05-07T08:34:33;8.05;;;6.72;;
7645;SDS011;3864;48.180;14.178;2023-05-07T08:37:13;8.57;;;6.43;;
7645;SDS011;3864;48.180;14.178;2023-05-07T08:39:42;8.68;;;6.97;;
7645;SDS011;3864;48.180;14.178;2023-05-07T08:42:16;8.40;;;6.28;;
7645;SDS011;3864;48.180;14.178;2023-05-07T08:44:44;7.65;;;6.53;;
7645;SDS011;3864;48.180;14.178;2023-05-07T08:47:19;8.82;;;6.07;;
7645;SDS011;3864;48.180;14.178;2023-05-07T08:58:03;8.23;;;6.45;;
7645;SDS011;3864;48.180;14.178;2023-05-07T09:00:32;7.55;;;5.20;;
7645;SDS011;3864;48.180;14.178;2023-05-07T09:03:12;8.10;;;5.28;;
7645;SDS011;3864;48.180;14.178;2023-05-07T09:06:07;7.80;;;6.00;;
7645;SDS011;3864;48.180;14.178;2023-05-07T09:08:35;9.55;;;5.68;;
7645;SDS011;3864;48.180;14.178;2023-05-07T09:11:02;7.75;;;6.43;;
7645;SDS011;3864;48.180;14.178;2023-05-07T09:13:29;10.95;;;6.65;;
7645;SDS011;3864;48.180;14.178;2023-05-07T09:15:56;7.10;;;6.40;;
7645;SDS011;3864;48.180;14.178;2023-05-07T09:18:23;7.32;;;6.20;;
7645;SDS011;3864;48.180;14.178;2023-05-07T09:20:51;9.55;;;6.60;;
7645;SDS011;3864;48.180;14.178;2023-05-07T09:23:19;8.65;;;6.25;;
7645;SDS011;3864;48.180;14.178;2023-05-07T09:25:46;9.45;;;6.28;;
7645;SDS011;3864;48.180;14.178;2023-05-07T09:28:13;7.43;;;6.03;;
7645;SDS011;3864;48.180;14.178;2023-05-07T09:30:40;8.13;;;5.38;;
7645;SDS011;3864;48.180;14.178;2023-05-07T09:33:08;8.15;;;5.90;;
7645;SDS011;3864;48.180;14.178;2023-05-07T09:35:35;8.48;;;6.13;;
7645;SDS011;3864;48.180;14.178;2023-05-07T09:38:03;6.22;;;5.28;;
7645;SDS011;3864;48.180;14.178;2023-05-07T09:40:32;6.50;;;4.88;;
7645;SDS011;3864;48.180;14.178;2023-05-07T09:43:11;8.35;;;6.35;;
7645;SDS011;3864;48.180;14.178;2023-05-07T09:45:39;7.43;;;5.82;;
7645;SDS011;3864;48.180;14.178;2023-05-07T09:48:07;7.63;;;6.15;;
7645;SDS011;3864;48.180;14.178;2023-05-07T09:50:36;7.35;;;5.35;;
7645;SDS011;3864;48.180;14.178;2023-05-07T09:53:07;8.85;;;5.57;;
7645;SDS011;3864;48.180;14.178;2023-05-07T09:55:38;5.88;;;4.90;;
7645;SDS011;3864;48.180;14.178;2023-05-07T09:58:05;6.65;;;5.32;;
7645;SDS011;3864;48.180;14.178;2023-05-07T10:00:33;6.47;;;4.50;;
7645;SDS011;3864;48.180;14.178;2023-05-07T10:03:00;6.88;;;5.07;;
7645;SDS011;3864;48.180;14.178;2023-05-07T10:05:28;7.30;;;4.97;;
7645;SDS011;3864;48.180;14.178;2023-05-07T10:07:55;5.38;;;4.10;;
7645;SDS011;3864;48.180;14.178;2023-05-07T10:10:22;6.45;;;4.75;;
7645;SDS011;3864;48.180;14.178;2023-05-07T10:12:51;7.07;;;5.10;;
7645;SDS011;3864;48.180;14.178;2023-05-07T10:15:19;6.72;;;5.38;;
7645;SDS011;3864;48.180;14.178;2023-05-07T10:17:53;6.28;;;4.95;;
7645;SDS011;3864;48.180;14.178;2023-05-07T10:20:27;7.10;;;5.40;;
7645;SDS011;3864;48.180;14.178;2023-05-07T10:22:59;7.32;;;4.70;;
7645;SDS011;3864;48.180;14.178;2023-05-07T10:25:31;6.13;;;3.92;;
7645;SDS011;3864;48.180;14.178;2023-05-07T10:28:04;6.10;;;4.63;;
7645;SDS011;3864;48.180;14.178;2023-05-07T10:30:38;6.20;;;4.85;;
7645;SDS011;3864;48.180;14.178;2023-05-07T10:33:06;5.85;;;4.28;;
7645;SDS011;3864;48.180;14.178;2023-05-07T10:35:37;5.93;;;4.15;;
7645;SDS011;3864;48.180;14.178;2023-05-07T10:38:05;9.95;;;5.47;;
7645;SDS011;3864;48.180;14.178;2023-05-07T10:40:33;7.60;;;5.57;;
7645;SDS011;3864;48.180;14.178;2023-05-07T10:43:01;8.13;;;5.65;;
7645;SDS011;3864;48.180;14.178;2023-05-07T10:45:31;7.72;;;5.05;;
7645;SDS011;3864;48.180;14.178;2023-05-07T10:48:05;6.88;;;5.43;;
7645;SDS011;3864;48.180;14.178;2023-05-07T10:50:33;7.32;;;4.80;;
7645;SDS011;3864;48.180;14.178;2023-05-07T10:55:50;6.50;;;4.60;;
7645;SDS011;3864;48.180;14.178;2023-05-07T10:58:24;6.15;;;4.85;;
7645;SDS011;3864;48.180;14.178;2023-05-07T11:00:59;6.70;;;5.00;;
7645;SDS011;3864;48.180;14.178;2023-05-07T11:03:27;6.15;;;4.50;;
7645;SDS011;3864;48.180;14.178;2023-05-07T11:06:10;7.18;;;5.07;;
7645;SDS011;3864;48.180;14.178;2023-05-07T11:08:53;6.95;;;5.22;;
7645;SDS011;3864;48.180;14.178;2023-05-07T11:11:33;5.63;;;4.55;;
7645;SDS011;3864;48.180;14.178;2023-05-07T11:14:11;6.40;;;4.18;;
7645;SDS011;3864;48.180;14.178;2023-05-07T11:16:40;5.15;;;4.30;;
7645;SDS011;3864;48.180;14.178;2023-05-07T11:19:08;4.53;;;4.00;;
7645;SDS011;3864;48.180;14.178;2023-05-07T11:21:36;6.85;;;4.88;;
7645;SDS011;3864;48.180;14.178;2023-05-07T11:24:07;6.13;;;4.55;;
7645;SDS011;3864;48.180;14.178;2023-05-07T11:26:47;4.82;;;3.95;;
7645;SDS011;3864;48.180;14.178;2023-05-07T11:29:27;5.28;;;3.72;;
7645;SDS011;3864;48.180;14.178;2023-05-07T11:32:01;7.32;;;4.15;;
7645;SDS011;3864;48.180;14.178;2023-05-07T11:34:29;7.78;;;3.80;;
7645;SDS011;3864;48.180;14.178;2023-05-07T11:36:56;6.63;;;4.45;;
7645;SDS011;3864;48.180;14.178;2023-05-07T11:39:28;5.97;;;4.78;;
7645;SDS011;3864;48.180;14.178;2023-05-07T11:41:56;6.38;;;4.53;;
7645;SDS011;3864;48.180;14.178;2023-05-07T11:44:23;6.53;;;4.90;;
7645;SDS011;3864;48.180;14.178;2023-05-07T11:46:50;5.88;;;4.05;;
7645;SDS011;3864;48.180;14.178;2023-05-07T11:49:18;5.75;;;3.97;;
7645;SDS011;3864;48.180;14.178;2023-05-07T11:51:45;5.43;;;3.70;;
7645;SDS011;3864;48.180;14.178;2023-05-07T11:54:15;5.32;;;3.90;;
7645;SDS011;3864;48.180;14.178;2023-05-07T11:56:42;5.47;;;4.13;;
7645;SDS011;3864;48.180;14.178;2023-05-07T11:59:10;5.57;;;3.83;;
7645;SDS011;3864;48.180;14.178;2023-05-07T12:01:37;5.35;;;4.13;;
7645;SDS011;3864;48.180;14.178;2023-05-07T12:04:04;5.95;;;3.70;;
7645;SDS011;3864;48.180;14.178;2023-05-07T12:06:35;4.35;;;3.78;;
7645;SDS011;3864;48.180;14.178;2023-05-07T12:09:02;5.22;;;3.00;;
7645;SDS011;3864;48.180;14.178;2023-05-07T12:11:29;4.82;;;3.60;;
7645;SDS011;3864;48.180;14.178;2023-05-07T12:13:56;6.25;;;3.70;;
7645;SDS011;3864;48.180;14.178;2023-05-07T12:16:23;3.45;;;3.05;;
7645;SDS011;3864;48.180;14.178;2023-05-07T12:18:50;4.63;;;3.50;;
7645;SDS011;3864;48.180;14.178;2023-05-07T12:21:20;4.88;;;3.50;;
7645;SDS011;3864;48.180;14.178;2023-05-07T12:23:49;4.07;;;3.58;;
7645;SDS011;3864;48.180;14.178;2023-05-07T12:26:16;4.95;;;3.15;;
7645;SDS011;3864;48.180;14.178;2023-05-07T12:28:44;4.20;;;3.47;;
7645;SDS011;3864;48.180;14.178;2023-05-07T12:31:14;4.43;;;3.30;;
7645;SDS011;3864;48.180;14.178;2023-05-07T12:33:41;4.05;;;3.00;;
7645;SDS011;3864;48.180;14.178;2023-05-07T12:36:11;4.35;;;3.60;;
7645;SDS011;3864;48.180;14.178;2023-05-07T12:38:38;4.93;;;3.15;;
7645;SDS011;3864;48.180;14.178;2023-05-07T12:41:08;5.18;;;3.65;;
7645;SDS011;3864;48.180;14.178;2023-05-07T12:43:34;4.75;;;3.58;;
7645;SDS011;3864;48.180;14.178;2023-05-07T12:46:03;4.15;;;3.38;;
7645;SDS011;3864;48.180;14.178;2023-05-07T12:48:30;5.20;;;3.45;;
7645;SDS011;3864;48.180;14.178;2023-05-07T12:50:58;3.95;;;3.35;;
7645;SDS011;3864;48.180;14.178;2023-05-07T12:53:26;5.07;;;3.08;;
7645;SDS011;3864;48.180;14.178;2023-05-07T12:55:54;4.75;;;3.47;;
7645;SDS011;3864;48.180;14.178;2023-05-07T12:58:25;4.45;;;3.35;;
7645;SDS011;3864;48.180;14.178;2023-05-07T13:00:52;4.30;;;3.60;;
7645;SDS011;3864;48.180;14.178;2023-05-07T13:03:23;3.97;;;3.45;;
7645;SDS011;3864;48.180;14.178;2023-05-07T13:05:51;4.10;;;3.50;;
7645;SDS011;3864;48.180;14.178;2023-05-07T13:08:28;4.68;;;3.53;;
7645;SDS011;3864;48.180;14.178;2023-05-07T13:10:56;5.25;;;3.95;;
7645;SDS011;3864;48.180;14.178;2023-05-07T13:13:25;4.47;;;3.70;;
7645;SDS011;3864;48.180;14.178;2023-05-07T13:15:54;6.43;;;3.90;;
7645;SDS011;3864;48.180;14.178;2023-05-07T13:18:21;4.65;;;3.83;;
7645;SDS011;3864;48.180;14.178;2023-05-07T13:20:48;6.03;;;3.80;;
7645;SDS011;3864;48.180;14.178;2023-05-07T13:23:16;5.82;;;4.38;;
7645;SDS011;3864;48.180;14.178;2023-05-07T13:25:43;5.75;;;4.15;;
7645;SDS011;3864;48.180;14.178;2023-05-07T13:28:10;4.97;;;4.03;;
7645;SDS011;3864;48.180;14.178;2023-05-07T13:30:39;6.60;;;4.28;;
7645;SDS011;3864;48.180;14.178;2023-05-07T13:33:07;5.45;;;4.43;;
7645;SDS011;3864;48.180;14.178;2023-05-07T13:35:35;5.30;;;4.18;;
7645;SDS011;3864;48.180;14.178;2023-05-07T13:38:02;6.00;;;4.38;;
7645;SDS011;3864;48.180;14.178;2023-05-07T13:40:30;7.53;;;4.55;;
7645;SDS011;3864;48.180;14.178;2023-05-07T13:42:57;4.80;;;4.15;;
7645;SDS011;3864;48.180;14.178;2023-05-07T13:45:25;7.10;;;4.53;;
7645;SDS011;3864;48.180;14.178;2023-05-07T13:47:56;4.57;;;3.75;;
7645;SDS011;3864;48.180;14.178;2023-05-07T13:50:23;7.38;;;4.20;;
7645;SDS011;3864;48.180;14.178;2023-05-07T13:52:52;5.47;;;4.03;;
7645;SDS011;3864;48.180;14.178;2023-05-07T13:55:19;5.65;;;4.22;;
7645;SDS011;3864;48.180;14.178;2023-05-07T13:57:53;5.88;;;4.50;;
7645;SDS011;3864;48.180;14.178;2023-05-07T14:00:21;5.32;;;4.20;;
7645;SDS011;3864;48.180;14.178;2023-05-07T14:02:51;5.43;;;4.50;;
7645;SDS011;3864;48.180;14.178;2023-05-07T14:05:22;4.97;;;4.47;;
7645;SDS011;3864;48.180;14.178;2023-05-07T14:07:49;7.40;;;4.22;;
7645;SDS011;3864;48.180;14.178;2023-05-07T14:10:17;5.53;;;4.30;;
7645;SDS011;3864;48.180;14.178;2023-05-07T14:12:44;5.32;;;3.95;;
7645;SDS011;3864;48.180;14.178;2023-05-07T14:15:12;5.93;;;4.50;;
7645;SDS011;3864;48.180;14.178;2023-05-07T14:17:39;4.90;;;4.10;;
7645;SDS011;3864;48.180;14.178;2023-05-07T14:20:06;6.97;;;4.63;;
7645;SDS011;3864;48.180;14.178;2023-05-07T14:22:35;5.20;;;4.10;;
7645;SDS011;3864;48.180;14.178;2023-05-07T14:25:02;7.78;;;4.10;;
7645;SDS011;3864;48.180;14.178;2023-05-07T14:27:29;4.72;;;3.75;;
7645;SDS011;3864;48.180;14.178;2023-05-07T14:29:56;4.80;;;3.97;;
7645;SDS011;3864;48.180;14.178;2023-05-07T14:32:24;4.50;;;3.80;;
7645;SDS011;3864;48.180;14.178;2023-05-07T14:34:51;6.07;;;4.47;;
7645;SDS011;3864;48.180;14.178;2023-05-07T14:37:18;5.72;;;4.50;;
7645;SDS011;3864;48.180;14.178;2023-05-07T14:39:47;5.35;;;4.10;;
7645;SDS011;3864;48.180;14.178;2023-05-07T14:42:14;5.40;;;4.85;;
7645;SDS011;3864;48.180;14.178;2023-05-07T14:44:42;6.53;;;5.00;;
7645;SDS011;3864;48.180;14.178;2023-05-07T14:47:10;8.05;;;5.05;;
7645;SDS011;3864;48.180;14.178;2023-05-07T14:49:37;6.13;;;5.20;;
7645;SDS011;3864;48.180;14.178;2023-05-07T14:52:05;6.80;;;5.55;;
7645;SDS011;3864;48.180;14.178;2023-05-07T14:54:34;5.78;;;5.00;;
7645;SDS011;3864;48.180;14.178;2023-05-07T14:57:04;7.25;;;5.35;;
7645;SDS011;3864;48.180;14.178;2023-05-07T14:59:31;6.85;;;5.63;;
7645;SDS011;3864;48.180;14.178;2023-05-07T15:01:58;7.25;;;4.55;;
7645;SDS011;3864;48.180;14.178;2023-05-07T15:04:25;6.70;;;5.25;;
7645;SDS011;3864;48.180;14.178;2023-05-07T15:06:52;7.30;;;5.70;;
7645;SDS011;3864;48.180;14.178;2023-05-07T15:09:19;6.72;;;5.60;;
7645;SDS011;3864;48.180;14.178;2023-05-07T15:11:46;6.35;;;5.00;;
7645;SDS011;3864;48.180;14.178;2023-05-07T15:14:15;8.00;;;6.55;;
7645;SDS011;3864;48.180;14.178;2023-05-07T15:16:42;8.27;;;6.75;;
7645;SDS011;3864;48.180;14.178;2023-05-07T15:19:10;8.77;;;5.78;;
7645;SDS011;3864;48.180;14.178;2023-05-07T15:21:37;8.23;;;6.10;;
7645;SDS011;3864;48.180;14.178;2023-05-07T15:24:04;6.80;;;5.90;;
7645;SDS011;3864;48.180;14.178;2023-05-07T15:26:31;8.80;;;6.45;;
7645;SDS011;3864;48.180;14.178;2023-05-07T15:28:58;9.73;;;7.05;;
7645;SDS011;3864;48.180;14.178;2023-05-07T15:31:29;11.15;;;7.88;;
7645;SDS011;3864;48.180;14.178;2023-05-07T15:33:57;9.10;;;8.20;;
7645;SDS011;3864;48.180;14.178;2023-05-07T15:36:24;10.07;;;7.65;;
7645;SDS011;3864;48.180;14.178;2023-05-07T15:38:52;8.50;;;6.95;;
7645;SDS011;3864;48.180;14.178;2023-05-07T15:41:20;8.00;;;6.35;;
7645;SDS011;3864;48.180;14.178;2023-05-07T15:43:50;8.88;;;6.60;;
7645;SDS011;3864;48.180;14.178;2023-05-07T15:46:18;8.88;;;7.97;;
7645;SDS011;3864;48.180;14.178;2023-05-07T15:48:51;8.93;;;7.28;;
7645;SDS011;3864;48.180;14.178;2023-05-07T15:51:20;7.80;;;6.50;;
7645;SDS011;3864;48.180;14.178;2023-05-07T15:53:53;13.63;;;8.25;;
7645;SDS011;3864;48.180;14.178;2023-05-07T15:56:22;11.15;;;7.85;;
7645;SDS011;3864;48.180;14.178;2023-05-07T15:58:56;7.80;;;6.78;;
7645;SDS011;3864;48.180;14.178;2023-05-07T16:01:24;8.30;;;6.53;;
7645;SDS011;3864;48.180;14.178;2023-05-07T16:03:52;9.88;;;8.10;;
7645;SDS011;3864;48.180;14.178;2023-05-07T16:06:20;10.48;;;7.78;;
7645;SDS011;3864;48.180;14.178;2023-05-07T16:08:47;11.95;;;8.32;;
7645;SDS011;3864;48.180;14.178;2023-05-07T16:11:14;12.45;;;8.10;;
7645;SDS011;3864;48.180;14.178;2023-05-07T16:13:41;11.02;;;8.15;;
7645;SDS011;3864;48.180;14.178;2023-05-07T16:16:08;10.13;;;7.72;;
7645;SDS011;3864;48.180;14.178;2023-05-07T16:18:35;12.00;;;8.77;;
7645;SDS011;3864;48.180;14.178;2023-05-07T16:21:05;11.20;;;9.15;;
7645;SDS011;3864;48.180;14.178;2023-05-07T16:23:32;9.77;;;7.68;;
7645;SDS011;3864;48.180;14.178;2023-05-07T16:26:00;13.70;;;9.77;;
7645;SDS011;3864;48.180;14.178;2023-05-07T16:28:29;10.50;;;8.00;;
7645;SDS011;3864;48.180;14.178;2023-05-07T16:30:56;11.30;;;8.70;;
7645;SDS011;3864;48.180;14.178;2023-05-07T16:33:23;11.15;;;7.60;;